Time;durP1;ratioP1;P1;durP2;ratioP2;P2;SDS_P1;SDS_P2;PMS_P1;PMS_P2;Temp;Humidity;BMP_temperature;BMP_pressure;BME280_temperature;BME280_humidity;BME280_pressure;Samples;Min_cycle;Max_cycle;Signal;HPM_P1;HPM_P2
2023/06/26 00:01:32;;;;;;;12.23;9.23;;;24.40;99.90;;;;;;5069282;28;20291;-75
2023/06/26 00:04:01;;;;;;;11.05;9.70;;;24.40;99.90;;;;;;5068629;28;20565;-74
2023/06/26 00:06:28;;;;;;;10.35;9.23;;;24.30;99.90;;;;;;5051318;28;20294;-75
2023/06/26 00:08:56;;;;;;;13.60;10.60;;;24.40;99.90;;;;;;5049607;28;20700;-75
2023/06/26 00:11:23;;;;;;;12.15;9.85;;;24.30;99.90;;;;;;5069065;28;20707;-75
2023/06/26 00:13:50;;;;;;;11.10;9.10;;;24.30;99.90;;;;;;5069283;28;20300;-76
2023/06/26 00:16:17;;;;;;;13.23;9.68;;;24.20;99.90;;;;;;5068963;28;20208;-75
2023/06/26 00:18:44;;;;;;;14.82;9.75;;;24.20;99.90;;;;;;5050828;28;20201;-75
2023/06/26 00:21:11;;;;;;;13.50;9.85;;;24.20;99.90;;;;;;5068377;28;20626;-75
2023/06/26 00:23:37;;;;;;;12.13;10.25;;;24.10;99.90;;;;;;5068493;28;20294;-76
2023/06/26 00:26:06;;;;;;;12.15;9.95;;;24.20;99.90;;;;;;5052550;28;20204;-75
2023/06/26 00:28:33;;;;;;;12.40;9.88;;;24.10;99.90;;;;;;5068333;28;20220;-75
2023/06/26 00:31:00;;;;;;;12.88;9.82;;;24.00;99.90;;;;;;5050239;28;20303;-75
2023/06/26 00:33:26;;;;;;;10.60;9.25;;;23.90;99.90;;;;;;5068118;28;20548;-74
2023/06/26 00:35:53;;;;;;;12.27;9.45;;;23.90;99.90;;;;;;5068776;28;20208;-74
2023/06/26 00:38:21;;;;;;;11.82;10.07;;;23.90;99.90;;;;;;5068323;28;20212;-75
2023/06/26 00:40:47;;;;;;;11.57;9.43;;;23.90;99.90;;;;;;5059744;28;20212;-76
2023/06/26 00:43:14;;;;;;;11.85;9.90;;;23.90;99.90;;;;;;5067869;28;20243;-74
2023/06/26 00:45:41;;;;;;;10.73;9.05;;;23.80;99.90;;;;;;5068140;28;20223;-75
2023/06/26 00:48:13;;;;;;;10.93;9.45;;;23.80;99.90;;;;;;5050920;28;20219;-74
2023/06/26 00:50:42;;;;;;;12.45;9.65;;;23.70;99.90;;;;;;5067783;28;20275;-75
2023/06/26 00:53:12;;;;;;;13.13;9.75;;;23.70;99.90;;;;;;5058175;28;20594;-75
2023/06/26 00:55:39;;;;;;;12.35;9.68;;;23.70;99.90;;;;;;5068390;28;20274;-74
2023/06/26 00:58:06;;;;;;;12.65;9.43;;;23.60;99.90;;;;;;5068074;28;20219;-75
2023/06/26 01:00:33;;;;;;;11.18;9.57;;;23.60;99.90;;;;;;5049506;28;20287;-75
2023/06/26 01:03:00;;;;;;;11.38;9.00;;;23.60;99.90;;;;;;5066902;28;20585;-76
2023/06/26 01:05:29;;;;;;;11.70;9.73;;;23.50;99.90;;;;;;5068125;28;20276;-76
2023/06/26 01:07:58;;;;;;;12.27;9.40;;;23.60;99.90;;;;;;5059570;28;20217;-73
2023/06/26 01:10:27;;;;;;;11.60;9.50;;;23.40;99.90;;;;;;5050062;28;20319;-74
2023/06/26 01:12:55;;;;;;;10.00;8.73;;;23.40;99.90;;;;;;5066448;28;20581;-74
2023/06/26 01:15:22;;;;;;;11.95;9.85;;;23.40;99.90;;;;;;5067839;28;20206;-75
2023/06/26 01:17:50;;;;;;;11.13;9.68;;;23.30;99.90;;;;;;5067188;28;20208;-75
2023/06/26 01:20:18;;;;;;;11.20;9.57;;;23.40;99.90;;;;;;5067869;28;20248;-75
2023/06/26 01:22:50;;;;;;;11.98;9.68;;;23.30;99.90;;;;;;5067405;28;20251;-74
2023/06/26 01:25:23;;;;;;;12.85;9.88;;;23.20;99.90;;;;;;5050302;28;20204;-75
2023/06/26 01:27:52;;;;;;;11.55;8.48;;;23.20;99.90;;;;;;5068137;28;20216;-73
2023/06/26 01:30:21;;;;;;;12.73;9.63;;;23.20;99.90;;;;;;5067273;28;20444;-74
2023/06/26 01:32:48;;;;;;;11.80;9.15;;;23.20;99.90;;;;;;5067315;28;20204;-74
2023/06/26 01:35:16;;;;;;;9.63;8.60;;;23.30;99.90;;;;;;5067613;28;20219;-75
2023/06/26 01:37:42;;;;;;;12.30;10.13;;;23.20;99.90;;;;;;5067681;28;20629;-75
2023/06/26 01:40:10;;;;;;;12.77;10.02;;;23.20;99.90;;;;;;5062934;28;20767;-75
2023/06/26 01:42:37;;;;;;;11.88;9.82;;;23.20;99.90;;;;;;5063726;28;20627;-75
2023/06/26 01:45:12;;;;;;;10.60;9.00;;;23.10;99.90;;;;;;5067389;28;20255;-75
2023/06/26 01:47:46;;;;;;;10.30;8.45;;;23.20;99.90;;;;;;5067205;28;20203;-74
2023/06/26 01:50:22;;;;;;;10.48;9.07;;;23.10;99.90;;;;;;5067169;28;20208;-74
2023/06/26 01:53:00;;;;;;;11.13;8.90;;;23.10;99.90;;;;;;5048896;28;20402;-75
2023/06/26 01:55:42;;;;;;;11.82;9.40;;;23.00;99.90;;;;;;5067594;28;20273;-74
2023/06/26 01:58:10;;;;;;;10.85;9.30;;;23.00;99.90;;;;;;5059801;28;20204;-75
2023/06/26 02:00:37;;;;;;;11.10;8.80;;;23.00;99.90;;;;;;5067053;28;20209;-74
2023/06/26 02:03:05;;;;;;;12.30;8.60;;;22.90;99.90;;;;;;5067010;28;20251;-74
2023/06/26 02:05:33;;;;;;;11.07;9.02;;;22.90;99.90;;;;;;5067951;28;20232;-74
2023/06/26 02:08:01;;;;;;;12.77;8.77;;;22.80;99.90;;;;;;5059272;28;20204;-75
2023/06/26 02:10:28;;;;;;;13.93;9.13;;;22.90;99.90;;;;;;5067087;28;20236;-74
2023/06/26 02:12:54;;;;;;;12.13;9.68;;;23.00;99.90;;;;;;5068900;28;20212;-75
2023/06/26 02:15:21;;;;;;;12.27;9.43;;;22.90;99.90;;;;;;5070982;28;20696;-75
2023/06/26 02:17:48;;;;;;;11.63;9.27;;;23.00;99.90;;;;;;5053464;28;20226;-74
2023/06/26 02:20:15;;;;;;;12.63;9.50;;;23.00;99.90;;;;;;5073449;28;20208;-75
2023/06/26 02:22:42;;;;;;;14.05;10.32;;;23.00;99.90;;;;;;5075718;28;20602;-74
2023/06/26 02:25:12;;;;;;;13.95;10.20;;;23.10;99.90;;;;;;5075983;28;20413;-75
2023/06/26 02:27:39;;;;;;;11.02;9.25;;;23.00;99.90;;;;;;5075281;28;20709;-75
2023/06/26 02:30:07;;;;;;;13.00;10.05;;;23.10;99.90;;;;;;5055325;28;20212;-75
2023/06/26 02:32:34;;;;;;;12.40;9.75;;;23.00;99.90;;;;;;5070724;28;20255;-76
2023/06/26 02:35:02;;;;;;;15.60;11.15;;;23.00;99.90;;;;;;5053273;28;20208;-74
2023/06/26 02:37:29;;;;;;;15.63;10.63;;;23.00;99.90;;;;;;5070458;28;20230;-74
2023/06/26 02:39:55;;;;;;;13.05;10.60;;;23.00;99.90;;;;;;5068709;28;20217;-74
2023/06/26 02:42:22;;;;;;;14.13;10.95;;;22.90;99.90;;;;;;5066161;28;20208;-75
2023/06/26 02:44:49;;;;;;;14.07;9.85;;;22.90;99.90;;;;;;5051974;28;20684;-75
2023/06/26 02:47:16;;;;;;;13.15;10.15;;;22.70;99.90;;;;;;5070225;28;20641;-74
2023/06/26 02:49:43;;;;;;;14.85;10.15;;;22.70;99.90;;;;;;5070487;28;20297;-74
2023/06/26 02:52:09;;;;;;;13.82;9.85;;;22.70;99.90;;;;;;5070505;28;20644;-74
2023/06/26 02:54:36;;;;;;;12.00;9.23;;;22.80;99.90;;;;;;5070820;28;20235;-74
2023/06/26 02:57:03;;;;;;;11.13;8.35;;;22.60;99.90;;;;;;5070479;28;20294;-74
2023/06/26 02:59:30;;;;;;;10.48;7.82;;;22.70;99.90;;;;;;5070502;28;20213;-74
2023/06/26 03:01:57;;;;;;;9.95;7.18;;;22.60;99.90;;;;;;5070542;28;20556;-73
2023/06/26 03:04:24;;;;;;;9.30;6.78;;;22.60;99.90;;;;;;5070148;28;20217;-74
2023/06/26 03:06:51;;;;;;;9.10;6.68;;;22.60;99.90;;;;;;5062068;28;20293;-74
2023/06/26 03:09:17;;;;;;;12.10;7.07;;;22.50;99.90;;;;;;5069612;28;20315;-73
2023/06/26 03:11:44;;;;;;;10.02;6.50;;;22.50;99.90;;;;;;5070099;28;20206;-75
2023/06/26 03:14:11;;;;;;;9.35;6.03;;;22.40;99.90;;;;;;5052182;28;20215;-76
2023/06/26 03:16:38;;;;;;;7.72;6.20;;;22.40;99.90;;;;;;5070009;28;20200;-74
2023/06/26 03:19:05;;;;;;;8.30;5.90;;;22.40;99.90;;;;;;5069317;28;20205;-74
2023/06/26 03:21:35;;;;;;;9.55;5.97;;;22.40;99.90;;;;;;5069706;28;20203;-74
2023/06/26 03:24:02;;;;;;;8.70;5.85;;;22.30;99.90;;;;;;5050119;28;20232;-74
2023/06/26 03:26:28;;;;;;;9.73;5.70;;;22.30;99.90;;;;;;5069724;28;20200;-74
2023/06/26 03:28:55;;;;;;;10.85;6.40;;;22.30;99.90;;;;;;5069930;28;20205;-73
2023/06/26 03:31:22;;;;;;;8.63;5.55;;;22.30;99.90;;;;;;5069830;28;20208;-75
2023/06/26 03:33:49;;;;;;;12.45;6.07;;;22.30;99.90;;;;;;5051289;28;20381;-74
2023/06/26 03:36:16;;;;;;;9.27;5.47;;;22.20;99.90;;;;;;5051897;28;20231;-75
2023/06/26 03:38:42;;;;;;;10.20;5.90;;;22.20;99.90;;;;;;5069232;28;20224;-75
2023/06/26 03:41:09;;;;;;;8.93;5.40;;;22.30;99.90;;;;;;5061259;28;20212;-75
2023/06/26 03:43:36;;;;;;;7.93;4.85;;;22.10;99.90;;;;;;5068980;28;20366;-76
2023/06/26 03:46:03;;;;;;;9.15;5.18;;;22.10;99.90;;;;;;5069218;28;20652;-74
2023/06/26 03:48:30;;;;;;;7.50;4.40;;;22.10;99.90;;;;;;5069682;28;20254;-75
2023/06/26 03:50:58;;;;;;;11.75;5.85;;;22.00;99.90;;;;;;5069187;28;20200;-75
2023/06/26 03:53:25;;;;;;;10.43;4.90;;;22.10;99.90;;;;;;5069000;28;20695;-75
2023/06/26 03:55:51;;;;;;;7.63;5.05;;;22.00;99.90;;;;;;5051486;28;20216;-74
2023/06/26 03:58:18;;;;;;;10.85;5.38;;;22.00;99.90;;;;;;5068680;28;20216;-74
2023/06/26 04:00:50;;;;;;;11.35;4.82;;;22.00;99.90;;;;;;5069034;28;20242;-76
2023/06/26 04:03:17;;;;;;;7.97;4.97;;;22.00;99.90;;;;;;5069153;28;20200;-75
2023/06/26 04:05:44;;;;;;;7.88;4.78;;;22.00;99.90;;;;;;5068686;28;20201;-75
2023/06/26 04:08:11;;;;;;;8.20;4.93;;;22.00;99.90;;;;;;5059839;28;20221;-76
2023/06/26 04:10:38;;;;;;;8.88;5.05;;;22.10;99.90;;;;;;5068870;28;20638;-75
2023/06/26 04:13:05;;;;;;;13.40;5.40;;;22.00;99.90;;;;;;5042395;28;20212;-75
2023/06/26 04:15:31;;;;;;;6.57;4.70;;;22.10;99.90;;;;;;5068957;28;20668;-76
2023/06/26 04:17:58;;;;;;;9.98;5.30;;;22.10;99.90;;;;;;5068251;28;20261;-75
2023/06/26 04:20:25;;;;;;;9.35;4.85;;;22.00;99.90;;;;;;5068394;28;20306;-74
2023/06/26 04:22:52;;;;;;;9.85;5.22;;;22.10;99.90;;;;;;5050490;28;20608;-73
2023/06/26 04:25:19;;;;;;;12.05;4.97;;;22.00;99.90;;;;;;5068900;28;20247;-75
2023/06/26 04:27:46;;;;;;;8.05;5.05;;;22.10;99.90;;;;;;5068475;28;20208;-74
2023/06/26 04:30:13;;;;;;;8.60;4.68;;;22.00;99.90;;;;;;5051092;28;20235;-75
2023/06/26 04:32:43;;;;;;;11.80;4.65;;;22.00;99.90;;;;;;5067894;28;20292;-76
2023/06/26 04:35:10;;;;;;;8.35;4.57;;;22.00;99.90;;;;;;5042827;28;20208;-75
2023/06/26 04:37:40;;;;;;;10.60;4.50;;;22.00;99.90;;;;;;5068448;28;20208;-75
2023/06/26 04:40:09;;;;;;;9.15;4.85;;;22.00;99.90;;;;;;5038447;28;20286;-74
2023/06/26 04:42:36;;;;;;;8.45;4.90;;;22.00;99.90;;;;;;5064432;28;20212;-75
2023/06/26 04:45:03;;;;;;;14.07;5.15;;;22.00;99.90;;;;;;5067731;28;20239;-75
2023/06/26 04:47:30;;;;;;;10.45;4.65;;;21.90;99.90;;;;;;5067467;28;20562;-76
2023/06/26 04:49:57;;;;;;;13.02;5.00;;;21.90;99.90;;;;;;5068045;28;20254;-75
2023/06/26 04:52:23;;;;;;;12.35;5.20;;;22.00;99.90;;;;;;5068159;28;20216;-74
2023/06/26 04:54:50;;;;;;;10.85;5.25;;;21.90;99.90;;;;;;5068120;28;20228;-74
2023/06/26 04:57:20;;;;;;;11.52;5.22;;;21.90;99.90;;;;;;5067621;28;20212;-74
2023/06/26 04:59:47;;;;;;;8.27;4.25;;;21.90;99.90;;;;;;5049790;28;20567;-74
2023/06/26 05:02:14;;;;;;;11.02;4.82;;;21.90;99.90;;;;;;5068009;28;20656;-75
2023/06/26 05:04:42;;;;;;;10.55;4.78;;;21.90;99.90;;;;;;5067825;28;20241;-75
2023/06/26 05:07:09;;;;;;;9.32;4.68;;;22.00;99.90;;;;;;5059171;28;20240;-75
2023/06/26 05:09:36;;;;;;;9.32;4.35;;;22.20;99.90;;;;;;5067755;28;20270;-74
2023/06/26 05:12:03;;;;;;;9.38;4.10;;;22.10;99.90;;;;;;5067821;28;20277;-75
2023/06/26 05:14:30;;;;;;;11.85;4.82;;;22.20;99.90;;;;;;5068125;28;20207;-73
2023/06/26 05:16:57;;;;;;;11.75;4.55;;;22.10;99.90;;;;;;5068224;28;20208;-74
2023/06/26 05:19:23;;;;;;;13.85;4.93;;;22.00;99.90;;;;;;5067483;28;20205;-75
2023/06/26 05:21:51;;;;;;;14.40;5.03;;;22.00;99.90;;;;;;5049762;28;20216;-73
2023/06/26 05:24:19;;;;;;;9.77;4.05;;;22.00;99.90;;;;;;5067759;28;20228;-74
2023/06/26 05:26:48;;;;;;;11.43;4.60;;;22.10;99.90;;;;;;5068353;28;20200;-75
2023/06/26 05:29:15;;;;;;;9.57;3.97;;;22.30;99.90;;;;;;5067782;28;20216;-76
2023/06/26 05:31:47;;;;;;;11.30;4.78;;;22.80;99.90;;;;;;5067253;28;20778;-73
2023/06/26 05:34:15;;;;;;;9.55;4.22;;;23.40;99.90;;;;;;5067417;28;20197;-75
2023/06/26 05:36:43;;;;;;;7.18;4.63;;;24.20;99.90;;;;;;5066863;28;20675;-74
2023/06/26 05:39:10;;;;;;;9.85;4.40;;;24.70;99.90;;;;;;5049344;28;20665;-77
2023/06/26 05:41:37;;;;;;;11.18;4.38;;;25.00;99.90;;;;;;5059128;28;20516;-75
2023/06/26 05:44:06;;;;;;;10.52;3.72;;;25.60;99.90;;;;;;5049419;28;20444;-75
2023/06/26 05:46:33;;;;;;;9.90;3.80;;;;;;;;;;5049165;28;20208;-75
2023/06/26 05:49:03;;;;;;;8.27;4.25;;;26.10;99.90;;;;;;5067917;28;20212;-76
2023/06/26 05:51:34;;;;;;;7.55;3.88;;;26.40;99.90;;;;;;5049553;28;20201;-77
2023/06/26 05:54:01;;;;;;;9.90;4.30;;;26.70;99.90;;;;;;5049348;28;20235;-75
2023/06/26 05:56:30;;;;;;;8.57;3.58;;;27.20;99.90;;;;;;5067699;28;20200;-76
2023/06/26 05:59:05;;;;;;;10.68;3.67;;;27.40;99.90;;;;;;5067401;28;20326;-74
2023/06/26 06:01:42;;;;;;;8.80;3.90;;;27.50;99.90;;;;;;5045835;28;20243;-73
2023/06/26 06:04:11;;;;;;;6.18;3.22;;;27.60;99.90;;;;;;5064434;28;20289;-75
2023/06/26 06:06:54;;;;;;;7.55;3.28;;;27.90;99.90;;;;;;5059194;28;20209;-77
2023/06/26 06:09:25;;;;;;;6.43;3.20;;;28.30;99.90;;;;;;5061016;28;20240;-75
2023/06/26 06:11:53;;;;;;;6.22;2.92;;;28.70;99.90;;;;;;5049397;28;20348;-76
2023/06/26 06:14:28;;;;;;;4.55;2.20;;;29.00;99.90;;;;;;5067267;28;20295;-75
2023/06/26 06:16:55;;;;;;;4.00;1.90;;;29.30;99.90;;;;;;5049291;28;20232;-75
2023/06/26 06:19:22;;;;;;;4.22;1.90;;;29.30;99.90;;;;;;5067016;28;20221;-76
2023/06/26 06:21:49;;;;;;;2.80;1.75;;;29.40;99.90;;;;;;5049138;28;20205;-75
2023/06/26 06:24:17;;;;;;;3.30;2.13;;;29.70;99.90;;;;;;5049225;28;20224;-76
2023/06/26 06:29:46;;;;;;;3.15;1.80;;;29.90;99.90;;;;;;5067208;28;20212;-75
2023/06/26 06:32:25;;;;;;;;;;;;;;;;;;;;;
2023/06/26 06:34:56;;;;;;;2.63;1.90;;;29.80;99.90;;;;;;5067099;28;20265;-76
2023/06/26 06:37:40;;;;;;;;;;;;;;;;;;;;;
2023/06/26 06:40:12;;;;;;;4.35;1.80;;;30.30;99.90;;;;;;5063030;28;20652;-75
2023/06/26 06:42:51;;;;;;;2.00;1.67;;;30.40;99.80;;;;;;5045339;28;20572;-74
2023/06/26 06:45:21;;;;;;;3.92;1.80;;;30.60;99.10;;;;;;5049217;28;20246;-74
2023/06/26 06:47:48;;;;;;;4.75;1.70;;;30.70;99.00;;;;;;5049203;28;20757;-75
2023/06/26 06:50:15;;;;;;;1.90;1.65;;;30.90;98.60;;;;;;5049160;28;20223;-78
2023/06/26 06:52:43;;;;;;;3.45;1.90;;;30.90;98.30;;;;;;5048764;28;20860;-74
2023/06/26 06:55:15;;;;;;;4.32;1.95;;;30.80;97.70;;;;;;5048544;28;20707;-75
2023/06/26 06:57:49;;;;;;;3.13;1.60;;;30.60;97.30;;;;;;5048791;28;20578;-76
2023/06/26 07:00:24;;;;;;;3.75;1.80;;;30.70;97.20;;;;;;5069073;28;20644;-76
2023/06/26 07:03:06;;;;;;;2.80;1.40;;;30.70;96.70;;;;;;5054195;28;20208;-77
2023/06/26 07:05:49;;;;;;;2.08;1.48;;;30.70;96.90;;;;;;5050675;28;20227;-76
2023/06/26 07:08:26;;;;;;;3.75;1.52;;;30.80;95.90;;;;;;5062872;28;20347;-76
2023/06/26 07:10:56;;;;;;;3.65;2.00;;;30.80;96.00;;;;;;5051958;28;20242;-77
2023/06/26 07:13:29;;;;;;;5.63;1.80;;;30.80;95.90;;;;;;5051709;28;20564;-76
2023/06/26 07:16:11;;;;;;;3.72;1.80;;;30.70;95.90;;;;;;5070237;28;20208;-75
2023/06/26 07:18:44;;;;;;;3.22;1.63;;;30.90;95.80;;;;;;5053026;28;20247;-77
2023/06/26 07:21:15;;;;;;;2.40;1.60;;;30.90;95.70;;;;;;5052804;28;20224;-77
2023/06/26 07:23:46;;;;;;;5.28;2.25;;;31.10;95.40;;;;;;5052067;28;20289;-79
2023/06/26 07:26:15;;;;;;;2.20;1.70;;;31.30;95.20;;;;;;5051797;28;21418;-76
2023/06/26 07:28:44;;;;;;;3.60;1.90;;;31.50;95.20;;;;;;5051467;28;20578;-76
2023/06/26 07:31:15;;;;;;;2.65;1.60;;;31.60;94.90;;;;;;5052644;28;20215;-76
2023/06/26 07:33:48;;;;;;;2.85;1.90;;;31.10;94.70;;;;;;5052222;28;20201;-78
2023/06/26 07:36:17;;;;;;;3.42;1.70;;;30.30;94.80;;;;;;5070121;28;20612;-77
2023/06/26 07:38:48;;;;;;;3.92;2.00;;;30.00;95.80;;;;;;5068591;28;20722;-76
2023/06/26 07:41:36;;;;;;;4.10;1.63;;;30.10;95.80;;;;;;5051677;28;20283;-77
2023/06/26 07:44:29;;;;;;;3.95;1.90;;;30.40;95.60;;;;;;5069060;28;20671;-76
2023/06/26 07:47:13;;;;;;;2.72;2.05;;;30.80;95.30;;;;;;5051423;28;20220;-75
2023/06/26 07:49:43;;;;;;;3.53;1.77;;;31.20;95.30;;;;;;5051906;28;20216;-76
2023/06/26 07:52:34;;;;;;;2.88;1.75;;;31.10;94.90;;;;;;5052126;28;20219;-76
2023/06/26 07:55:37;;;;;;;5.05;1.77;;;31.30;93.90;;;;;;5048497;28;20665;-75
2023/06/26 07:58:14;;;;;;;3.95;1.98;;;31.00;93.80;;;;;;5043359;28;20208;-76
2023/06/26 08:00:49;;;;;;;4.78;1.80;;;30.40;94.30;;;;;;5051781;28;20675;-76
2023/06/26 08:03:17;;;;;;;4.32;1.88;;;30.00;94.80;;;;;;5069171;28;20293;-77
2023/06/26 08:06:07;;;;;;;2.60;1.80;;;30.00;95.50;;;;;;5053500;28;20575;-76
2023/06/26 08:08:46;;;;;;;3.90;2.10;;;30.00;95.50;;;;;;5047420;28;20217;-76
2023/06/26 08:11:15;;;;;;;4.82;2.00;;;29.70;95.50;;;;;;5044637;28;20239;-76
2023/06/26 08:13:45;;;;;;;3.80;2.15;;;29.50;95.80;;;;;;5050684;28;20243;-78
2023/06/26 08:16:16;;;;;;;3.50;2.20;;;29.10;96.20;;;;;;5052081;28;20216;-76
2023/06/26 08:18:48;;;;;;;4.10;2.05;;;29.00;97.70;;;;;;5051024;28;20197;-75
2023/06/26 08:21:18;;;;;;;3.97;2.35;;;29.00;96.80;;;;;;5069156;28;20639;-77
2023/06/26 08:23:45;;;;;;;6.40;2.30;;;29.10;96.60;;;;;;5051688;28;20714;-76
2023/06/26 08:26:16;;;;;;;4.50;2.53;;;29.10;96.50;;;;;;5050782;28;20235;-75
2023/06/26 08:28:56;;;;;;;2.20;2.00;;;28.80;96.40;;;;;;5036882;28;20216;-74
2023/06/26 08:31:45;;;;;;;4.35;2.67;;;28.40;96.70;;;;;;5068346;28;20678;-76
2023/06/26 08:34:12;;;;;;;4.88;2.33;;;27.80;97.50;;;;;;5043677;28;20203;-75
2023/06/26 08:36:39;;;;;;;5.63;2.90;;;27.20;98.20;;;;;;5050020;28;20687;-75
2023/06/26 08:39:08;;;;;;;4.53;2.20;;;27.00;98.80;;;;;;5042116;28;20220;-80
2023/06/26 08:41:36;;;;;;;3.88;2.50;;;27.10;99.30;;;;;;5050537;28;20213;-76
2023/06/26 08:44:04;;;;;;;7.38;2.35;;;27.50;99.20;;;;;;5068174;28;20951;-75
2023/06/26 08:46:35;;;;;;;3.80;2.17;;;27.90;99.10;;;;;;5068506;28;20228;-77
2023/06/26 08:49:14;;;;;;;5.00;2.28;;;28.20;98.50;;;;;;5067612;28;20215;-75
2023/06/26 08:51:52;;;;;;;5.90;2.60;;;28.40;98.30;;;;;;5068612;28;20248;-74
2023/06/26 08:54:33;;;;;;;4.05;1.98;;;28.40;98.60;;;;;;5068172;28;20291;-75
2023/06/26 08:57:01;;;;;;;4.35;2.35;;;28.40;98.10;;;;;;5067983;28;20240;-76
2023/06/26 08:59:48;;;;;;;3.30;2.05;;;28.50;98.60;;;;;;5067657;28;20215;-75
2023/06/26 09:02:20;;;;;;;3.78;2.38;;;28.70;97.40;;;;;;5044664;28;20563;-76
2023/06/26 09:04:49;;;;;;;4.75;2.50;;;28.80;96.80;;;;;;5069015;28;20220;-75
2023/06/26 09:07:16;;;;;;;4.60;2.38;;;28.90;96.80;;;;;;5050378;28;20732;-74
2023/06/26 09:09:48;;;;;;;5.85;2.58;;;29.20;96.20;;;;;;5049373;28;20308;-74
2023/06/26 09:12:15;;;;;;;3.80;2.10;;;29.30;96.00;;;;;;5049706;28;20287;-76
2023/06/26 09:14:42;;;;;;;3.67;2.22;;;28.80;96.00;;;;;;5067888;28;20204;-74
2023/06/26 09:17:09;;;;;;;3.75;2.33;;;28.70;95.70;;;;;;5050643;28;20219;-74
2023/06/26 09:19:38;;;;;;;5.90;2.20;;;28.90;95.40;;;;;;5068479;28;20211;-73
2023/06/26 09:22:13;;;;;;;4.75;2.13;;;29.00;95.70;;;;;;5048969;28;20219;-76
2023/06/26 09:24:43;;;;;;;8.15;2.20;;;29.20;95.30;;;;;;5049990;28;20313;-74
2023/06/26 09:27:14;;;;;;;4.20;1.98;;;29.40;95.00;;;;;;5049956;28;20208;-74
2023/06/26 09:29:41;;;;;;;6.70;2.55;;;28.80;94.80;;;;;;5067563;28;20215;-77
2023/06/26 09:32:09;;;;;;;3.45;2.08;;;28.20;94.80;;;;;;5049687;28;20683;-75
2023/06/26 09:34:36;;;;;;;5.65;2.10;;;27.80;95.60;;;;;;5067475;28;20204;-76
2023/06/26 09:37:06;;;;;;;3.55;1.77;;;27.70;96.30;;;;;;5049348;28;20209;-74
2023/06/26 09:39:34;;;;;;;4.50;2.17;;;27.90;96.60;;;;;;5068215;28;20235;-74
2023/06/26 09:42:06;;;;;;;4.45;1.67;;;28.20;95.80;;;;;;5059221;28;20215;-74
2023/06/26 09:44:45;;;;;;;2.22;1.30;;;28.30;94.60;;;;;;5067540;28;20269;-77
2023/06/26 09:47:29;;;;;;;2.47;1.50;;;28.00;93.60;;;;;;5061123;28;20204;-74
2023/06/26 09:50:26;;;;;;;2.47;1.10;;;27.90;93.20;;;;;;5044454;28;20286;-75
2023/06/26 09:53:13;;;;;;;4.22;1.52;;;28.00;92.00;;;;;;5051157;28;20204;-74
2023/06/26 09:55:43;;;;;;;2.38;1.10;;;27.80;92.10;;;;;;5067600;28;20204;-74
2023/06/26 09:58:14;;;;;;;2.58;1.20;;;27.70;92.40;;;;;;5060124;28;20208;-75
2023/06/26 10:00:43;;;;;;;2.08;0.93;;;27.60;91.50;;;;;;5049809;28;20587;-73
2023/06/26 10:03:14;;;;;;;2.78;1.27;;;27.70;91.30;;;;;;5050089;28;20208;-74
2023/06/26 10:05:41;;;;;;;2.45;1.10;;;27.70;90.40;;;;;;5065991;28;20221;-75
2023/06/26 10:08:09;;;;;;;1.77;0.90;;;27.60;91.30;;;;;;5041705;28;20817;-74
2023/06/26 10:10:40;;;;;;;1.88;1.10;;;27.60;90.10;;;;;;5066659;28;20243;-74
2023/06/26 10:13:29;;;;;;;3.35;1.20;;;27.50;89.30;;;;;;5049320;28;20306;-75
2023/06/26 10:15:58;;;;;;;2.72;1.00;;;27.30;89.70;;;;;;5067177;28;20244;-75
2023/06/26 10:18:32;;;;;;;2.65;1.05;;;27.30;89.90;;;;;;5067478;28;20220;-75
2023/06/26 10:21:01;;;;;;;3.88;1.00;;;27.30;90.60;;;;;;5049381;28;20208;-75
2023/06/26 10:23:29;;;;;;;1.55;0.90;;;27.30;91.20;;;;;;5049295;28;20215;-75
2023/06/26 10:26:01;;;;;;;2.45;1.20;;;27.60;89.20;;;;;;5048982;28;20619;-74
2023/06/26 10:28:33;;;;;;;2.33;1.17;;;27.60;86.30;;;;;;5067535;28;20220;-76
2023/06/26 10:31:02;;;;;;;3.35;1.00;;;27.70;87.70;;;;;;5049231;28;20728;-80
2023/06/26 10:33:30;;;;;;;2.60;1.05;;;27.50;87.00;;;;;;5068405;28;20546;-74
2023/06/26 10:36:18;;;;;;;1.55;0.90;;;27.50;86.00;;;;;;5070190;28;20269;-73
2023/06/26 10:38:53;;;;;;;2.90;0.90;;;27.50;87.30;;;;;;5071515;28;20273;-73
2023/06/26 10:41:22;;;;;;;2.38;0.93;;;27.50;85.80;;;;;;5052875;28;20621;-75
2023/06/26 10:43:59;;;;;;;2.88;1.10;;;27.50;88.50;;;;;;5070461;28;20605;-75
2023/06/26 10:46:34;;;;;;;3.67;1.23;;;27.40;89.20;;;;;;5071096;28;20318;-74
2023/06/26 10:49:03;;;;;;;2.88;1.40;;;27.20;89.60;;;;;;5069780;28;20803;-75
2023/06/26 10:51:30;;;;;;;3.92;1.30;;;27.20;90.20;;;;;;5070796;28;20216;-75
2023/06/26 10:53:57;;;;;;;3.10;1.33;;;27.50;90.70;;;;;;5052115;28;20233;-77
2023/06/26 10:57:01;;;;;;;4.57;1.10;;;27.60;90.50;;;;;;5070742;28;20220;-73
2023/06/26 10:59:33;;;;;;;3.10;1.40;;;27.50;90.00;;;;;;5065292;28;20664;-74
2023/06/26 11:02:01;;;;;;;1.42;0.80;;;27.50;90.20;;;;;;5070295;28;20327;-75
2023/06/26 11:04:43;;;;;;;1.98;1.13;;;27.50;86.80;;;;;;5065711;28;20599;-74
2023/06/26 11:07:22;;;;;;;4.43;1.30;;;27.70;86.20;;;;;;5060409;28;20228;-74
2023/06/26 11:10:02;;;;;;;2.47;1.20;;;28.00;88.20;;;;;;5065542;28;20708;-74
2023/06/26 11:12:38;;;;;;;3.58;1.40;;;27.80;86.50;;;;;;5051604;28;20204;-76
2023/06/26 11:15:11;;;;;;;5.13;1.63;;;27.50;88.00;;;;;;5069966;28;20257;-74
2023/06/26 11:17:39;;;;;;;4.22;1.42;;;27.00;88.80;;;;;;5051808;28;20207;-75
2023/06/26 11:20:08;;;;;;;2.95;1.17;;;26.80;90.00;;;;;;5052538;28;20295;-76
2023/06/26 11:22:37;;;;;;;2.78;1.42;;;26.80;90.70;;;;;;5069991;28;20274;-75
2023/06/26 11:25:05;;;;;;;3.20;1.70;;;26.70;91.80;;;;;;5051473;28;20286;-75
2023/06/26 11:27:44;;;;;;;2.10;1.10;;;26.80;91.40;;;;;;5051931;28;20537;-75
2023/06/26 11:30:23;;;;;;;2.80;1.17;;;27.00;91.00;;;;;;5062761;28;20225;-77
2023/06/26 11:32:50;;;;;;;3.40;1.00;;;27.00;90.50;;;;;;5069361;28;20668;-75
2023/06/26 11:35:30;;;;;;;1.38;1.00;;;26.90;90.00;;;;;;5069565;28;20204;-74
2023/06/26 11:38:04;;;;;;;3.67;1.02;;;27.00;88.80;;;;;;5050877;28;20601;-75
2023/06/26 11:40:37;;;;;;;2.35;0.90;;;27.10;88.60;;;;;;5069664;28;20292;-75
2023/06/26 11:43:06;;;;;;;2.17;0.85;;;27.20;88.10;;;;;;5061667;28;20652;-74
2023/06/26 11:45:33;;;;;;;3.13;0.90;;;27.40;87.40;;;;;;5050839;28;20243;-74
2023/06/26 11:48:01;;;;;;;4.38;1.20;;;27.50;87.30;;;;;;5051529;28;20285;-76
2023/06/26 11:50:28;;;;;;;1.85;1.13;;;27.60;86.50;;;;;;5051070;28;20556;-76
2023/06/26 11:52:57;;;;;;;4.40;1.02;;;27.40;85.10;;;;;;5051227;28;20676;-76
2023/06/26 11:55:25;;;;;;;1.55;0.95;;;27.20;85.40;;;;;;5069363;28;20204;-76
2023/06/26 11:57:55;;;;;;;1.83;1.13;;;27.00;85.40;;;;;;5069181;28;20220;-75
2023/06/26 12:00:22;;;;;;;3.17;1.00;;;26.60;85.80;;;;;;5068998;28;20209;-73
2023/06/26 12:02:51;;;;;;;3.50;1.10;;;26.30;86.40;;;;;;5068992;28;20231;-76
2023/06/26 12:05:19;;;;;;;2.42;1.17;;;26.40;88.10;;;;;;5069295;28;20243;-74
2023/06/26 12:07:48;;;;;;;3.75;0.98;;;26.70;88.20;;;;;;5060449;28;20216;-75
2023/06/26 12:10:17;;;;;;;2.67;1.00;;;26.70;87.50;;;;;;5051291;28;20263;-75
2023/06/26 12:12:45;;;;;;;1.48;0.90;;;27.00;86.80;;;;;;5068971;28;20692;-77
2023/06/26 12:15:14;;;;;;;3.22;1.00;;;27.10;85.80;;;;;;5051008;28;20236;-74
2023/06/26 12:17:44;;;;;;;1.80;1.00;;;26.80;85.40;;;;;;5051030;28;20274;-74
2023/06/26 12:20:19;;;;;;;1.77;1.00;;;26.80;86.00;;;;;;5068861;28;20204;-74
2023/06/26 12:22:48;;;;;;;3.60;0.98;;;26.80;86.70;;;;;;5069055;28;20315;-74
2023/06/26 12:25:22;;;;;;;2.78;0.98;;;26.90;86.60;;;;;;5068547;28;20216;-75
2023/06/26 12:27:49;;;;;;;1.10;1.00;;;27.10;87.10;;;;;;5068941;28;20665;-77
2023/06/26 12:30:16;;;;;;;2.08;1.10;;;27.20;88.00;;;;;;5051184;28;20247;-75
2023/06/26 12:32:48;;;;;;;2.38;1.17;;;27.30;87.60;;;;;;5068533;28;20204;-72
2023/06/26 12:35:16;;;;;;;2.25;1.17;;;26.80;88.00;;;;;;5068652;28;20242;-76
2023/06/26 12:37:45;;;;;;;1.92;1.20;;;26.70;87.80;;;;;;5068870;28;20277;-75
2023/06/26 12:40:22;;;;;;;3.75;1.45;;;26.80;88.60;;;;;;5063299;28;20299;-75
2023/06/26 12:42:49;;;;;;;2.28;1.13;;;27.00;87.00;;;;;;5065940;28;20208;-74
2023/06/26 12:45:16;;;;;;;3.75;1.10;;;27.30;87.00;;;;;;5050646;28;20249;-74
2023/06/26 12:48:16;;;;;;;4.32;1.13;;;27.50;85.20;;;;;;5052465;28;20209;-74
2023/06/26 12:50:47;;;;;;;2.08;0.82;;;27.70;83.60;;;;;;5067789;28;20209;-73
2023/06/26 12:53:15;;;;;;;2.38;1.00;;;27.80;83.90;;;;;;5068130;28;20259;-74
2023/06/26 12:55:42;;;;;;;2.85;1.15;;;27.80;83.30;;;;;;5068207;28;20311;-76
2023/06/26 12:58:09;;;;;;;2.67;1.00;;;27.90;82.90;;;;;;5067290;28;20209;-75
2023/06/26 13:00:42;;;;;;;2.67;0.82;;;27.80;82.60;;;;;;5051248;28;20212;-75
2023/06/26 13:03:09;;;;;;;2.83;0.90;;;28.00;81.70;;;;;;5042356;28;20291;-74
2023/06/26 13:05:40;;;;;;;3.88;0.82;;;27.90;79.50;;;;;;5067655;28;20205;-77